Time;durP1;ratioP1;P1;durP2;ratioP2;P2;SDS_P1;SDS_P2;PMS_P1;PMS_P2;Temp;Humidity;BMP_temperature;BMP_pressure;BME280_temperature;BME280_humidity;BME280_pressure;Samples;Min_cycle;Max_cycle;Signal;HPM_P1;HPM_P2
2020/12/10 17:02:05;;;;;;;37.80;21.60;;;;;;;2.01;86.23;97899.00;5160840;27;21082;-69
2020/12/10 17:04:30;;;;;;;58.75;32.95;;;;;;;1.90;87.05;97887.94;5169434;27;20034;-69
2020/12/10 17:06:56;;;;;;;56.45;30.17;;;;;;;1.77;87.81;97890.44;5170434;27;20026;-69
2020/12/10 17:09:21;;;;;;;51.90;28.52;;;;;;;1.68;88.32;97890.41;5170865;27;20382;-69
2020/12/10 17:11:46;;;;;;;59.78;32.80;;;;;;;1.68;88.67;97892.97;5170506;27;20030;-69
2020/12/10 17:14:12;;;;;;;52.78;27.92;;;;;;;1.64;88.75;97890.41;5170661;27;20026;-69
2020/12/10 17:16:37;;;;;;;74.70;42.03;;;;;;;1.56;89.55;97892.09;5170538;27;20026;-69
2020/12/10 17:19:02;;;;;;;73.20;41.92;;;;;;;1.51;89.71;97903.13;5170596;27;20015;-69
2020/12/10 17:21:28;;;;;;;70.30;37.67;;;;;;;1.50;89.74;97900.59;5170267;27;20459;-69
2020/12/10 17:23:53;;;;;;;47.97;24.13;;;;;;;1.51;89.83;97894.63;5170409;27;20014;-69
2020/12/10 17:26:20;;;;;;;41.08;21.05;;;;;;;1.57;89.71;97902.31;5170403;27;20023;-68
2020/12/10 17:28:45;;;;;;;43.83;21.63;;;;;;;1.58;89.65;97901.44;5170533;27;20082;-69
2020/12/10 17:31:17;;;;;;;43.15;22.83;;;;;;;1.53;89.77;97898.03;5170158;27;20019;-69
2020/12/10 17:33:42;;;;;;;43.40;23.25;;;;;;;1.53;89.62;97903.13;5170214;27;20242;-69
2020/12/10 17:36:08;;;;;;;41.78;22.17;;;;;;;1.53;89.74;97910.78;5170527;27;20045;-69
2020/12/10 17:38:33;;;;;;;49.83;24.67;;;;;;;1.56;89.70;97908.25;5170246;27;20372;-69
2020/12/10 17:40:58;;;;;;;52.22;24.70;;;;;;;1.68;89.55;97903.19;5170147;27;20497;-68
2020/12/10 17:43:26;;;;;;;50.95;26.20;;;;;;;1.68;89.58;97917.66;5169903;27;20031;-69
2020/12/10 17:45:51;;;;;;;46.88;23.90;;;;;;;1.73;89.07;97911.69;5170092;27;20528;-69
2020/12/10 17:48:17;;;;;;;41.97;21.60;;;;;;;1.73;89.34;97916.81;5169935;27;20055;-69
2020/12/10 17:50:42;;;;;;;39.25;23.13;;;;;;;1.65;89.69;97913.41;5169873;27;20014;-69
2020/12/10 17:53:07;;;;;;;41.85;21.65;;;;;;;1.64;89.69;97910.81;5169730;27;20037;-69
2020/12/10 17:55:32;;;;;;;41.47;21.15;;;;;;;1.61;90.19;97900.63;5170063;27;20100;-69
2020/12/10 17:57:58;;;;;;;40.58;22.17;;;;;;;1.55;90.09;97906.56;5169687;27;20390;-69
2020/12/10 18:00:23;;;;;;;41.80;22.10;;;;;;;1.58;90.38;97908.25;5169448;27;20562;-69
2020/12/10 18:02:50;;;;;;;46.30;21.08;;;;;;;1.52;90.06;97911.63;5169535;27;20026;-69
2020/12/10 18:05:15;;;;;;;44.92;22.98;;;;;;;1.47;90.34;97913.31;5169847;27;20032;-69
2020/12/10 18:07:45;;;;;;;46.28;21.67;;;;;;;1.52;90.30;97911.63;5169419;27;20390;-69
2020/12/10 18:10:11;;;;;;;43.35;20.58;;;;;;;1.47;90.64;97909.06;5169523;27;20043;-69
2020/12/10 18:12:37;;;;;;;44.63;21.25;;;;;;;1.48;90.37;97904.81;5160291;27;20022;-69
2020/12/10 18:15:03;;;;;;;40.13;22.65;;;;;;;1.44;90.32;97900.53;5155678;27;20023;-69
2020/12/10 18:17:28;;;;;;;51.95;23.60;;;;;;;1.42;90.72;97899.69;5154493;27;20393;-68
2020/12/10 18:19:54;;;;;;;47.97;23.42;;;;;;;1.38;91.11;97897.97;5155514;27;20022;-69
2020/12/10 18:22:19;;;;;;;41.50;22.52;;;;;;;1.44;91.24;97895.44;5155417;27;20023;-69
2020/12/10 18:24:45;;;;;;;47.28;22.40;;;;;;;1.50;91.08;97892.94;5155303;27;20026;-68
2020/12/10 18:27:10;;;;;;;44.25;23.27;;;;;;;1.49;91.06;97886.09;5155541;27;20022;-69
2020/12/10 18:29:35;;;;;;;39.22;20.35;;;;;;;1.50;90.91;97887.81;5155204;27;20022;-69
2020/12/10 18:32:01;;;;;;;47.78;23.98;;;;;;;1.48;91.11;97890.34;5155356;27;20042;-69
2020/12/10 18:34:26;;;;;;;44.92;22.30;;;;;;;1.48;91.23;97895.44;5154953;27;20029;-68
2020/12/10 18:36:51;;;;;;;44.53;23.10;;;;;;;1.52;91.06;97898.88;5155366;27;20051;-69
2020/12/10 18:39:17;;;;;;;45.15;23.05;;;;;;;1.47;91.06;97898.00;5155148;27;20414;-69
2020/12/10 18:41:44;;;;;;;42.45;23.23;;;;;;;1.44;91.04;97898.00;5155106;27;20477;-69
2020/12/10 18:44:10;;;;;;;40.58;21.60;;;;;;;1.47;90.49;97898.00;5154710;27;20031;-68
2020/12/10 18:46:36;;;;;;;40.65;20.65;;;;;;;1.42;90.42;97902.25;5155160;27;20106;-69
2020/12/10 18:49:01;;;;;;;43.95;22.50;;;;;;;1.54;90.40;97899.72;5155067;27;20102;-69
2020/12/10 18:51:27;;;;;;;42.88;21.25;;;;;;;1.53;89.65;97908.22;5154970;27;20027;-68
2020/12/10 18:53:52;;;;;;;41.17;20.63;;;;;;;1.59;89.43;97904.84;5154866;27;20026;-69
2020/12/10 18:56:18;;;;;;;34.05;19.00;;;;;;;1.54;88.41;97905.69;5155160;27;20029;-69
2020/12/10 18:58:44;;;;;;;40.47;20.38;;;;;;;1.65;88.32;97897.22;5154940;27;20014;-69
2020/12/10 19:01:09;;;;;;;41.75;21.25;;;;;;;1.63;87.75;97904.88;5154890;27;20387;-69
2020/12/10 19:03:35;;;;;;;37.03;19.58;;;;;;;1.58;87.31;97906.56;5154625;27;20027;-69
2020/12/10 19:06:00;;;;;;;49.83;25.75;;;;;;;1.50;86.68;97898.03;5154704;27;20107;-69
2020/12/10 19:08:25;;;;;;;42.10;20.90;;;;;;;1.50;86.74;97909.09;5154626;27;20022;-69
2020/12/10 19:10:51;;;;;;;46.83;24.08;;;;;;;1.56;86.92;97902.31;5154469;27;20038;-68
2020/12/10 19:13:16;;;;;;;35.67;20.83;;;;;;;1.50;86.77;97905.69;5154342;27;20023;-68
2020/12/10 19:15:41;;;;;;;36.70;19.42;;;;;;;1.58;87.10;97900.59;5163445;22;20056;-68
2020/12/10 19:18:09;;;;;;;33.85;19.65;;;;;;;1.58;86.95;97892.94;5072476;28;20104;-67
2020/12/10 19:20:35;;;;;;;38.00;20.48;;;;;;;1.46;87.93;97896.31;5072183;28;20021;-69
2020/12/10 19:23:01;;;;;;;35.30;18.60;;;;;;;1.56;88.36;97897.19;5071914;28;20500;-68
2020/12/10 19:25:26;;;;;;;40.85;22.02;;;;;;;1.51;89.01;97900.59;5071796;28;20047;-68
2020/12/10 19:27:51;;;;;;;40.25;22.08;;;;;;;1.43;90.04;97906.50;5072388;28;20380;-68
2020/12/10 19:30:17;;;;;;;42.22;21.70;;;;;;;1.43;90.43;97901.41;5072276;28;20028;-68
2020/12/10 19:32:42;;;;;;;39.90;20.17;;;;;;;1.48;90.08;97905.66;5072067;28;20488;-68
2020/12/10 19:35:08;;;;;;;39.45;20.58;;;;;;;1.41;90.66;97903.09;5072022;28;20476;-68
2020/12/10 19:37:34;;;;;;;38.88;20.05;;;;;;;1.33;90.41;97904.75;5072245;28;20024;-68
2020/12/10 19:40:01;;;;;;;40.47;21.40;;;;;;;1.32;90.90;97908.16;5071889;28;20040;-67
2020/12/10 19:42:27;;;;;;;38.47;20.83;;;;;;;1.37;90.56;97901.38;5071893;28;20017;-67
2020/12/10 19:44:52;;;;;;;39.38;20.35;;;;;;;1.55;89.89;97906.56;5071954;28;20029;-67
2020/12/10 19:47:18;;;;;;;43.85;20.88;;;;;;;1.48;90.54;97899.72;5072083;28;20472;-68
2020/12/10 19:49:43;;;;;;;38.17;20.70;;;;;;;1.58;90.15;97914.22;5071948;28;20029;-67
2020/12/10 19:52:08;;;;;;;40.80;20.33;;;;;;;1.65;90.44;97908.28;5071938;28;20496;-68
2020/12/10 19:54:35;;;;;;;39.35;20.85;;;;;;;1.64;89.92;97909.13;5071540;28;20115;-68
2020/12/10 19:57:00;;;;;;;37.58;20.08;;;;;;;1.60;89.72;97904.03;5071530;28;20469;-68
2020/12/10 19:59:25;;;;;;;36.17;20.08;;;;;;;1.77;90.62;97897.25;5071853;28;20028;-67
2020/12/10 20:01:51;;;;;;;39.47;21.02;;;;;;;1.61;90.12;97893.81;5071498;28;20029;-68
2020/12/10 20:04:16;;;;;;;34.70;20.15;;;;;;;1.51;89.69;97899.72;5070297;28;20028;-68
2020/12/10 20:06:49;;;;;;;42.22;21.63;;;;;;;1.68;89.90;97892.97;5071415;28;20032;-68
2020/12/10 20:09:15;;;;;;;43.78;21.90;;;;;;;1.65;89.47;97895.53;5071537;28;20031;-68
2020/12/10 20:11:43;;;;;;;41.45;20.80;;;;;;;1.64;89.92;97891.25;5071382;28;20016;-67
2020/12/10 20:14:09;;;;;;;43.05;20.60;;;;;;;1.53;89.77;97892.91;5071586;28;20107;-67
2020/12/10 20:16:35;;;;;;;40.60;21.45;;;;;;;1.55;89.99;97891.25;5069621;28;20025;-67
2020/12/10 20:19:00;;;;;;;42.22;20.85;;;;;;;1.56;90.17;97895.50;5071620;28;20115;-74
2020/12/10 20:21:27;;;;;;;39.55;20.52;;;;;;;1.52;90.44;97896.31;5071474;28;20501;-68
2020/12/10 20:23:59;;;;;;;44.65;20.92;;;;;;;1.51;90.49;97889.53;5071402;28;20029;-68
2020/12/10 20:26:46;;;;;;;40.45;21.63;;;;;;;1.55;90.37;97896.34;5071391;28;20095;-68
2020/12/10 20:29:15;;;;;;;40.92;21.23;;;;;;;1.40;90.54;97901.38;5071372;28;20036;-68
2020/12/10 20:31:40;;;;;;;42.42;20.92;;;;;;;1.44;90.71;97898.00;5071371;28;20029;-68
2020/12/10 20:34:10;;;;;;;42.80;21.75;;;;;;;1.45;91.19;97894.59;5070186;28;20044;-68
2020/12/10 20:36:36;;;;;;;;;;;;;;;1.37;90.75;97901.38;5071194;28;20020;-68
2020/12/10 20:39:04;;;;;;;40.60;20.90;;;;;;;1.43;90.71;97891.19;5071188;28;20361;-68
2020/12/10 20:41:33;;;;;;;45.00;22.90;;;;;;;1.26;91.17;97884.31;5071150;28;20035;-68
2020/12/10 20:44:01;;;;;;;41.17;23.05;;;;;;;1.36;91.09;97884.38;5071080;28;20020;-68
2020/12/10 20:46:27;;;;;;;46.20;22.02;;;;;;;1.26;91.18;97883.47;5070961;28;20040;-69
2020/12/10 20:48:52;;;;;;;44.55;23.75;;;;;;;1.27;91.94;97886.03;5071006;28;20067;-68
2020/12/10 20:51:17;;;;;;;42.28;22.15;;;;;;;1.27;91.67;97880.91;5070976;28;20115;-68
2020/12/10 20:53:43;;;;;;;44.75;23.25;;;;;;;1.25;91.89;97876.66;5070762;28;20056;-68
2020/12/10 20:56:08;;;;;;;47.20;24.15;;;;;;;1.17;91.80;97871.53;5071090;28;20032;-68
2020/12/10 20:58:33;;;;;;;45.65;23.02;;;;;;;1.18;91.72;97878.31;5071001;28;20051;-68
2020/12/10 21:00:59;;;;;;;44.85;22.85;;;;;;;1.13;92.15;97877.44;5070867;28;20025;-69
2020/12/10 21:03:24;;;;;;;42.72;23.33;;;;;;;1.19;92.21;97874.91;5070713;28;20024;-68
2020/12/10 21:05:50;;;;;;;49.63;22.98;;;;;;;1.17;92.37;97876.63;5070824;28;20444;-68
2020/12/10 21:08:15;;;;;;;49.97;24.23;;;;;;;1.16;92.42;97874.94;5070707;28;20484;-68
2020/12/10 21:10:42;;;;;;;40.42;22.38;;;;;;;1.13;92.33;97886.81;5070827;28;20024;-68
2020/12/10 21:13:07;;;;;;;45.47;22.60;;;;;;;1.18;92.34;97880.88;5070795;28;20574;-68
2020/12/10 21:15:32;;;;;;;49.20;24.17;;;;;;;1.17;92.22;97879.19;5070676;28;20032;-68
2020/12/10 21:17:57;;;;;;;57.78;26.70;;;;;;;1.23;92.22;97879.19;5070815;28;20029;-68
2020/12/10 21:20:23;;;;;;;49.67;23.70;;;;;;;1.34;92.52;97886.03;5070529;28;20048;-68
2020/12/10 21:22:48;;;;;;;45.33;22.17;;;;;;;1.26;91.95;97884.31;5069302;28;20109;-68
2020/12/10 21:25:13;;;;;;;50.05;24.13;;;;;;;1.32;91.68;97892.84;5070569;28;20070;-68
2020/12/10 21:27:39;;;;;;;49.42;23.67;;;;;;;1.33;91.47;97892.00;5070808;28;20100;-68
2020/12/10 21:30:04;;;;;;;39.40;21.67;;;;;;;1.28;91.46;97897.94;5070635;28;20021;-68
2020/12/10 21:32:29;;;;;;;40.97;21.42;;;;;;;1.23;91.66;97893.66;5070643;28;20021;-68
2020/12/10 21:34:54;;;;;;;43.30;21.98;;;;;;;1.33;91.67;97889.44;5070375;28;20031;-65
2020/12/10 21:37:24;;;;;;;44.90;22.75;;;;;;;1.24;91.75;97886.00;5070714;28;20024;-65
2020/12/10 21:39:50;;;;;;;38.38;21.38;;;;;;;1.13;91.32;97885.09;5070523;28;20066;-65
2020/12/10 21:42:16;;;;;;;42.47;22.17;;;;;;;1.17;91.53;97889.38;5070593;28;20033;-65
2020/12/10 21:44:41;;;;;;;41.63;20.83;;;;;;;1.19;91.39;97882.56;5070314;28;20478;-65
2020/12/10 21:47:06;;;;;;;44.53;23.05;;;;;;;1.23;91.20;97879.19;5071374;28;20040;-65
2020/12/10 21:49:32;;;;;;;47.72;22.40;;;;;;;1.30;91.54;97874.97;5074272;28;20482;-65
2020/12/10 21:51:58;;;;;;;39.65;20.65;;;;;;;1.42;91.24;97874.19;5074330;28;20055;-65
2020/12/10 21:54:24;;;;;;;44.08;22.02;;;;;;;1.18;91.56;97870.66;5074239;28;20052;-65
2020/12/10 21:56:50;;;;;;;42.22;21.83;;;;;;;1.25;91.89;97869.84;5074328;28;20055;-65
2020/12/10 21:59:18;;;;;;;38.05;20.95;;;;;;;1.34;91.49;97870.72;5074048;28;20430;-65
2020/12/10 22:01:47;;;;;;;35.85;19.48;;;;;;;1.31;91.46;97875.84;5073971;28;20025;-65
2020/12/10 22:04:12;;;;;;;35.50;19.45;;;;;;;1.47;90.48;97873.34;5073814;28;20039;-65
2020/12/10 22:06:37;;;;;;;35.65;19.52;;;;;;;1.46;90.29;97870.78;5073835;28;20024;-65
2020/12/10 22:09:02;;;;;;;36.55;19.35;;;;;;;1.54;89.56;97874.19;5073962;28;20021;-63
2020/12/10 22:11:34;;;;;;;40.38;21.70;;;;;;;1.30;90.45;97880.06;5073918;28;20480;-63
2020/12/10 22:14:01;;;;;;;37.55;21.02;;;;;;;1.24;90.63;97869.84;5073631;28;20024;-62
2020/12/10 22:16:27;;;;;;;36.55;19.10;;;;;;;1.35;90.89;97864.78;5073502;28;20028;-63
2020/12/10 22:18:54;;;;;;;41.35;20.50;;;;;;;1.22;91.00;97859.63;5073715;28;20081;-62
2020/12/10 22:21:19;;;;;;;40.03;22.23;;;;;;;1.19;91.16;97859.63;5073576;28;20102;-66
2020/12/10 22:23:45;;;;;;;42.55;22.38;;;;;;;1.19;91.56;97857.06;5073636;28;20518;-66
2020/12/10 22:26:39;;;;;;;39.92;22.02;;;;;;;1.14;91.55;97863.84;5073403;28;20103;-66
2020/12/10 22:29:04;;;;;;;39.70;22.63;;;;;;;1.13;91.24;97871.50;5064487;28;20550;-69
2020/12/10 22:31:30;;;;;;;42.35;20.40;;;;;;;1.15;91.50;97863.00;5073459;28;20111;-69
2020/12/10 22:33:55;;;;;;;39.00;20.98;;;;;;;1.19;91.50;97862.16;5073413;28;20047;-69
2020/12/10 22:36:21;;;;;;;37.15;21.30;;;;;;;1.20;91.35;97860.47;5073365;28;20618;-68
2020/12/10 22:38:48;;;;;;;40.33;21.67;;;;;;;1.20;91.46;97858.75;5073439;28;20063;-69
2020/12/10 22:41:14;;;;;;;42.45;22.25;;;;;;;1.19;91.42;97851.97;5073134;28;20033;-67
2020/12/10 22:43:41;;;;;;;38.70;19.60;;;;;;;1.18;91.30;97855.38;5072983;28;20081;-67
2020/12/10 22:46:07;;;;;;;40.25;21.40;;;;;;;1.19;91.42;97853.66;5073239;28;20025;-66
2020/12/10 22:48:33;;;;;;;40.45;22.02;;;;;;;1.18;91.45;97850.25;5073247;28;20047;-66
2020/12/10 22:51:03;;;;;;;36.38;21.25;;;;;;;1.26;91.52;97843.50;5073155;28;20024;-65
2020/12/10 22:53:29;;;;;;;37.15;21.35;;;;;;;1.20;91.57;97837.50;5073065;28;20028;-65
2020/12/10 22:55:54;;;;;;;37.63;19.38;;;;;;;1.24;91.33;97834.97;5072955;28;20655;-65
2020/12/10 22:58:19;;;;;;;36.47;20.02;;;;;;;1.30;91.17;97831.59;5072756;28;20065;-64
2020/12/10 23:00:45;;;;;;;42.28;21.17;;;;;;;1.21;91.03;97827.31;5072778;28;20025;-64
2020/12/10 23:03:10;;;;;;;39.42;21.08;;;;;;;1.20;91.05;97822.19;5072842;28;20029;-64
2020/12/10 23:05:35;;;;;;;41.30;21.73;;;;;;;1.22;91.31;97823.91;5072947;28;20063;-64
2020/12/10 23:08:00;;;;;;;36.63;19.95;;;;;;;1.16;91.36;97820.47;5072922;28;20487;-64
2020/12/10 23:10:26;;;;;;;34.35;19.50;;;;;;;1.06;92.06;97814.50;5072785;28;20020;-64
2020/12/10 23:12:51;;;;;;;40.72;21.05;;;;;;;1.08;92.19;97817.06;5072576;28;20032;-64
2020/12/10 23:15:16;;;;;;;41.40;22.02;;;;;;;1.10;92.19;97810.25;5072553;28;20396;-64
2020/12/10 23:17:42;;;;;;;43.90;21.60;;;;;;;1.12;92.11;97804.34;5072784;28;20471;-64
2020/12/10 23:20:07;;;;;;;43.10;22.55;;;;;;;1.07;92.18;97800.91;5072428;28;20370;-64
2020/12/10 23:22:32;;;;;;;42.10;20.48;;;;;;;1.41;90.66;97801.03;5072461;28;20108;-64
2020/12/10 23:24:58;;;;;;;34.80;19.10;;;;;;;1.11;91.49;97799.19;5072458;28;20397;-64
2020/12/10 23:27:23;;;;;;;41.13;20.33;;;;;;;1.04;92.04;97800.91;5072400;28;20020;-64
2020/12/10 23:29:49;;;;;;;40.40;20.35;;;;;;;1.03;92.12;97800.03;5072403;28;20036;-64
2020/12/10 23:32:14;;;;;;;38.00;19.83;;;;;;;1.05;92.32;97792.38;5072402;28;20021;-64
2020/12/10 23:34:40;;;;;;;41.33;20.25;;;;;;;1.06;92.13;97788.97;5072306;28;20485;-64
2020/12/10 23:37:05;;;;;;;38.25;20.08;;;;;;;1.05;92.17;97792.38;5072192;28;20067;-64
2020/12/10 23:39:30;;;;;;;39.42;20.65;;;;;;;0.99;92.62;97782.16;5072156;28;20465;-64
2020/12/10 23:41:56;;;;;;;40.03;21.13;;;;;;;1.00;92.75;97783.88;5071967;28;20472;-66
2020/12/10 23:44:21;;;;;;;39.78;20.42;;;;;;;1.00;92.97;97783.88;5072044;28;20103;-63
2020/12/10 23:46:47;;;;;;;38.03;20.52;;;;;;;1.04;92.82;97780.50;5071791;28;20186;-64
2020/12/10 23:49:13;;;;;;;43.53;21.40;;;;;;;1.07;92.46;97785.63;5072123;28;20115;-64
2020/12/10 23:51:39;;;;;;;38.17;20.27;;;;;;;1.13;92.23;97779.69;5071854;28;20028;-64
2020/12/10 23:54:05;;;;;;;36.70;19.90;;;;;;;1.18;91.78;97773.72;5071807;28;20082;-64
2020/12/10 23:56:35;;;;;;;36.70;18.83;;;;;;;1.16;91.10;97779.66;5071585;28;20031;-64
2020/12/10 23:59:01;;;;;;;38.22;21.33;;;;;;;1.16;90.98;97780.53;5071708;28;20095;-64
